Time;durP1;ratioP1;P1;durP2;ratioP2;P2;SDS_P1;SDS_P2;PMS_P1;PMS_P2;Temp;Humidity;BMP_temperature;BMP_pressure;BME280_temperature;BME280_humidity;BME280_pressure;Samples;Min_cycle;Max_cycle;Signal;HPM_P1;HPM_P2
2022/06/08 00:02:02;;;;;;;;;6.75;6.00;;;;;16.29;72.86;99386.94;5096614;28;8862;-63
2022/06/08 00:04:30;;;;;;;;;7.00;7.00;;;;;16.27;73.19;99387.09;5098927;28;8814;-64
2022/06/08 00:06:58;;;;;;;;;7.00;7.00;;;;;16.28;73.51;99385.28;5098379;28;8834;-64
2022/06/08 00:09:26;;;;;;;;;10.00;9.20;;;;;16.27;73.66;99386.28;5098529;28;8822;-64
2022/06/08 00:11:56;;;;;;;;;9.50;9.50;;;;;16.28;73.10;99386.13;5098276;28;8865;-64
2022/06/08 00:14:23;;;;;;;;;8.50;6.75;;;;;16.29;73.53;99371.66;5098148;28;9509;-64
2022/06/08 00:16:51;;;;;;;;;8.25;8.00;;;;;16.30;73.68;99378.72;5098490;28;8927;-64
2022/06/08 00:19:19;;;;;;;;;9.00;6.50;;;;;16.32;73.04;99371.31;5098536;28;8822;-64
2022/06/08 00:21:47;;;;;;;;;10.75;9.50;;;;;16.34;73.49;99379.22;5098171;28;8841;-64
2022/06/08 00:24:15;;;;;;;;;6.75;6.25;;;;;16.34;73.48;99374.66;5098347;28;8937;-64
2022/06/08 00:26:43;;;;;;;;;13.75;12.50;;;;;16.35;73.11;99373.66;5098183;28;8854;-64
2022/06/08 00:29:11;;;;;;;;;15.00;12.00;;;;;16.35;73.35;99364.75;5098117;28;8822;-64
2022/06/08 00:31:38;;;;;;;;;15.25;14.00;;;;;16.34;73.78;99365.78;5097691;28;8874;-64
2022/06/08 00:34:06;;;;;;;;;15.50;12.00;;;;;16.34;73.78;99363.91;5097754;28;8833;-64
2022/06/08 00:36:34;;;;;;;;;11.75;10.50;;;;;16.35;73.57;99362.06;5098489;28;8852;-64
2022/06/08 00:39:02;;;;;;;;;19.00;14.00;;;;;16.34;73.00;99366.59;5098519;28;8838;-64
2022/06/08 00:41:30;;;;;;;;;13.50;12.25;;;;;16.34;73.21;99363.09;5096857;28;8840;-64
2022/06/08 00:43:58;;;;;;;;;15.75;15.00;;;;;16.33;73.61;99364.91;5096450;28;8863;-64
2022/06/08 00:46:25;;;;;;;;;10.50;9.00;;;;;16.32;73.21;99359.75;5096522;28;8837;-64
2022/06/08 00:48:54;;;;;;;;;13.50;12.50;;;;;16.31;73.32;99358.88;5098029;28;8834;-64
2022/06/08 00:51:21;;;;;;;;;15.75;14.50;;;;;16.30;73.87;99349.16;5097825;28;8852;-64
2022/06/08 00:53:49;;;;;;;;;12.75;12.00;;;;;16.26;73.57;99345.13;5097388;28;8830;-64
2022/06/08 00:56:17;;;;;;;;;14.25;10.50;;;;;16.23;73.38;99347.31;5097420;28;8841;-64
2022/06/08 00:58:45;;;;;;;;;17.00;15.50;;;;;16.20;73.94;99340.44;5097024;28;8822;-64
2022/06/08 01:01:13;;;;;;;;;16.75;12.25;;;;;16.16;73.94;99340.94;5097583;28;8830;-64
2022/06/08 01:03:41;;;;;;;;;10.00;9.75;;;;;16.12;74.18;99341.47;5097415;28;8895;-64
2022/06/08 01:06:09;;;;;;;;;15.00;14.00;;;;;16.09;74.12;99336.44;5097613;28;8834;-64
2022/06/08 01:08:37;;;;;;;;;17.00;15.75;;;;;16.03;74.47;99340.66;5097875;28;8965;-64
2022/06/08 01:11:06;;;;;;;;;13.00;13.00;;;;;16.00;74.59;99337.47;5097402;28;8830;-64
2022/06/08 01:13:33;;;;;;;;;17.50;15.25;;;;;15.95;74.20;99339.84;5097388;28;8837;-64
2022/06/08 01:16:01;;;;;;;;;20.50;19.50;;;;;15.90;74.64;99328.75;5097365;28;8841;-64
2022/06/08 01:18:29;;;;;;;;;17.25;17.00;;;;;15.84;74.89;99330.28;5097336;28;8846;-64
2022/06/08 01:20:57;;;;;;;;;12.00;10.00;;;;;15.79;75.03;99329.13;5097343;28;8826;-64
2022/06/08 01:23:25;;;;;;;;;16.75;15.00;;;;;15.73;75.25;99329.78;5096701;28;8841;-64
2022/06/08 01:25:53;;;;;;;;;19.00;17.00;;;;;15.66;74.85;99328.78;5097577;28;8814;-64
2022/06/08 01:28:21;;;;;;;;;20.50;18.25;;;;;15.59;75.09;99330.47;5096417;28;8867;-64
2022/06/08 01:30:48;;;;;;;;;14.75;13.00;;;;;15.54;75.56;99335.53;5097093;28;8850;-64
2022/06/08 01:33:16;;;;;;;;;14.00;11.25;;;;;15.49;75.48;99335.19;5095765;28;8960;-64
2022/06/08 01:35:44;;;;;;;;;15.25;13.50;;;;;15.48;75.48;99328.13;5095655;28;8814;-64
2022/06/08 01:38:12;;;;;;;;;16.00;15.00;;;;;15.46;75.82;99324.78;5096976;28;8830;-64
2022/06/08 01:40:39;;;;;;;;;9.50;7.25;;;;;15.44;75.54;99321.41;5097069;28;8822;-64
2022/06/08 01:43:07;;;;;;;;;12.75;11.50;;;;;15.42;75.36;99304.66;5096370;28;8872;-64
2022/06/08 01:45:37;;;;;;;;;12.50;11.00;;;;;15.39;75.33;99310.38;5096243;28;8818;-64
2022/06/08 01:48:05;;;;;;;;;13.00;11.25;;;;;15.35;75.33;99306.31;5096720;28;8864;-65
2022/06/08 01:50:33;;;;;;;;;17.50;15.25;;;;;15.34;75.41;99315.38;5096683;28;9476;-64
2022/06/08 01:53:01;;;;;;;;;17.50;15.00;;;;;15.33;75.41;99313.72;5096439;28;8822;-64
2022/06/08 01:55:29;;;;;;;;;15.00;13.00;;;;;15.33;75.83;99311.84;5096052;28;8830;-64
2022/06/08 01:57:57;;;;;;;;;13.00;10.50;;;;;15.36;75.21;99316.06;5096661;28;8838;-64
2022/06/08 02:00:24;;;;;;;;;11.00;8.75;;;;;15.38;75.26;99298.78;5096303;28;8862;-64
2022/06/08 02:02:53;;;;;;;;;15.00;14.00;;;;;15.38;75.22;99298.78;5096262;28;8884;-64
2022/06/08 02:05:21;;;;;;;;;14.50;11.00;;;;;15.37;75.28;99290.88;5096922;28;8834;-64
2022/06/08 02:07:49;;;;;;;;;20.00;18.00;;;;;15.34;75.63;99299.28;5096006;28;8832;-64
2022/06/08 02:10:17;;;;;;;;;15.00;13.00;;;;;15.32;75.26;99304.00;5096341;28;8840;-65
2022/06/08 02:12:44;;;;;;;;;16.50;15.00;;;;;15.31;75.28;99299.59;5095652;28;8841;-64
2022/06/08 02:15:12;;;;;;;;;13.00;12.00;;;;;15.31;75.42;99295.09;5095411;28;8830;-65
2022/06/08 02:17:41;;;;;;;;;13.00;12.50;;;;;15.30;75.29;99295.22;5095964;28;8830;-64
2022/06/08 02:20:08;;;;;;;;;11.50;8.00;;;;;15.32;75.65;99286.03;5096380;28;8849;-64
2022/06/08 02:22:36;;;;;;;;;16.75;16.25;;;;;15.34;74.94;99289.41;5093834;28;8862;-64
2022/06/08 02:25:04;;;;;;;;;20.00;15.50;;;;;15.35;75.25;99285.72;5095880;28;8956;-65
2022/06/08 02:27:33;;;;;;;;;18.00;16.50;;;;;15.34;75.09;99283.19;5095618;28;8861;-64
2022/06/08 02:30:00;;;;;;;;;17.25;15.75;;;;;15.33;75.16;99281.53;5095622;28;8982;-64
2022/06/08 02:35:15;;;;;;;;;21.50;18.50;;;;;15.33;75.49;99281.53;5095191;28;8830;-64
2022/06/08 02:37:43;;;;;;;;;13.25;11.25;;;;;15.33;75.61;99279.66;5095952;28;8830;-64
2022/06/08 02:40:10;;;;;;;;;18.50;13.50;;;;;15.33;75.45;99281.53;5095941;28;8837;-65
2022/06/08 02:42:38;;;;;;;;;14.00;12.75;;;;;15.31;75.64;99270.09;5095314;28;8840;-64
2022/06/08 02:45:06;;;;;;;;;17.00;15.00;;;;;15.28;75.66;99265.03;5095914;28;8996;-64
2022/06/08 02:47:34;;;;;;;;;17.00;15.75;;;;;15.24;75.52;99272.59;5095765;28;8988;-64
2022/06/08 02:50:02;;;;;;;;;19.00;16.00;;;;;15.20;75.46;99267.72;5095702;28;8848;-65
2022/06/08 02:52:30;;;;;;;;;10.50;9.75;;;;;15.18;75.52;99277.78;5095416;28;8829;-64
2022/06/08 02:54:57;;;;;;;;;18.50;12.25;;;;;15.13;75.88;99267.56;5095492;28;8853;-65
2022/06/08 02:57:26;;;;;;;;;19.25;16.50;;;;;15.10;76.00;99261.69;5094954;28;8833;-64
2022/06/08 02:59:53;;;;;;;;;18.50;16.75;;;;;15.07;76.08;99260.19;5095609;28;8830;-64
2022/06/08 03:02:21;;;;;;;;;12.75;12.75;;;;;15.03;76.16;99268.75;5094837;28;8996;-64
2022/06/08 03:04:49;;;;;;;;;14.00;12.75;;;;;15.01;76.28;99270.75;5095400;28;8853;-64
2022/06/08 03:07:17;;;;;;;;;11.25;10.75;;;;;14.99;76.02;99264.69;5095440;28;8838;-64
2022/06/08 03:09:45;;;;;;;;;22.25;16.25;;;;;14.96;76.13;99265.84;5095529;28;8955;-64
2022/06/08 03:12:13;;;;;;;;;17.00;15.00;;;;;14.93;75.98;99270.72;5095601;28;8826;-65
2022/06/08 03:14:42;;;;;;;;;17.75;17.00;;;;;14.89;76.20;99264.88;5095345;28;8818;-65
2022/06/08 03:17:11;;;;;;;;;19.75;18.25;;;;;14.87;76.19;99260.69;5096144;28;8817;-64
2022/06/08 03:19:39;;;;;;;;;19.75;18.00;;;;;14.84;76.61;99256.47;5095105;28;8856;-64
2022/06/08 03:22:07;;;;;;;;;16.25;13.25;;;;;14.82;77.11;99261.19;5094856;28;8826;-64
2022/06/08 03:24:34;;;;;;;;;16.25;15.00;;;;;14.80;76.80;99249.75;5094415;28;8826;-64
2022/06/08 03:27:02;;;;;;;;;16.50;15.00;;;;;14.79;77.01;99250.78;5092568;28;8864;-64
2022/06/08 03:29:31;;;;;;;;;17.75;13.75;;;;;14.79;76.26;99248.09;5091859;28;9660;-65
2022/06/08 03:31:58;;;;;;;;;19.50;15.50;;;;;14.77;76.54;99246.56;5094910;28;8854;-64
2022/06/08 03:34:26;;;;;;;;;16.25;15.75;;;;;14.77;76.39;99238.53;5094476;28;8948;-64
2022/06/08 03:36:54;;;;;;;;;19.75;18.25;;;;;14.77;76.38;99243.88;5094711;28;8810;-64
2022/06/08 03:39:22;;;;;;;;;19.00;18.25;;;;;14.75;76.94;99244.06;5095057;28;8965;-64
2022/06/08 03:41:50;;;;;;;;;20.50;15.75;;;;;14.75;76.41;99232.50;5094565;28;8860;-64
2022/06/08 03:44:17;;;;;;;;;19.50;17.50;;;;;14.76;76.45;99231.50;5094662;28;8837;-64
2022/06/08 03:46:45;;;;;;;;;16.75;14.25;;;;;14.76;76.65;99240.38;5094171;28;8960;-64
2022/06/08 03:49:13;;;;;;;;;17.50;13.50;;;;;14.76;77.03;99232.34;5094424;28;8843;-64
2022/06/08 03:51:41;;;;;;;;;10.00;8.75;;;;;14.78;76.48;99234.84;5094674;28;8834;-64
2022/06/08 03:54:09;;;;;;;;;18.25;14.50;;;;;14.79;76.16;99231.19;5093115;28;8852;-64
2022/06/08 03:56:36;;;;;;;;;10.25;9.50;;;;;14.81;76.21;99235.34;5091496;28;8846;-63
2022/06/08 03:59:05;;;;;;;;;14.50;14.50;;;;;14.85;76.59;99231.34;5093559;28;8981;-64
2022/06/08 04:01:32;;;;;;;;;14.00;12.50;;;;;14.90;76.41;99228.16;5094522;28;8979;-64
2022/06/08 04:04:00;;;;;;;;;18.50;15.25;;;;;14.93;76.18;99234.03;5093760;28;8849;-63
2022/06/08 04:06:28;;;;;;;;;18.00;16.00;;;;;14.98;76.12;99238.88;5094394;28;8863;-64
2022/06/08 04:08:56;;;;;;;;;15.00;12.00;;;;;15.04;76.03;99239.09;5097938;28;8957;-64
2022/06/08 04:11:24;;;;;;;;;13.75;13.25;;;;;15.09;75.52;99236.72;5097303;28;9624;-63
2022/06/08 04:13:52;;;;;;;;;18.50;14.50;;;;;15.18;75.60;99240.25;5097088;28;8833;-63
2022/06/08 04:16:20;;;;;;;;;20.00;18.25;;;;;15.25;75.35;99234.03;5097209;28;8846;-63
2022/06/08 04:18:48;;;;;;;;;11.00;8.00;;;;;15.35;75.06;99228.53;5097432;28;8830;-63
2022/06/08 04:21:16;;;;;;;;;17.50;16.00;;;;;15.41;74.43;99230.53;5096250;28;8960;-63
2022/06/08 04:23:44;;;;;;;;;16.00;13.00;;;;;15.50;74.86;99229.50;5096491;28;8960;-63
2022/06/08 04:26:12;;;;;;;;;20.50;15.50;;;;;15.57;74.68;99236.72;5096025;28;8852;-63
2022/06/08 04:28:40;;;;;;;;;13.00;11.25;;;;;15.63;74.30;99236.00;5097045;28;8897;-63
2022/06/08 04:31:08;;;;;;;;;15.00;12.50;;;;;15.73;73.81;99235.81;5097841;28;8858;-63
2022/06/08 04:33:36;;;;;;;;;13.00;13.00;;;;;15.81;74.45;99239.34;5098353;28;8953;-63
2022/06/08 04:36:10;;;;;;;;;13.00;12.50;;;;;15.89;74.20;99233.09;5097284;28;9668;-63
2022/06/08 04:38:38;;;;;;;;;10.25;9.25;;;;;15.98;73.50;99227.53;5097903;28;8822;-63
2022/06/08 04:41:06;;;;;;;;;15.00;12.50;;;;;16.06;73.85;99230.19;5097388;28;8853;-63
2022/06/08 04:43:33;;;;;;;;;11.50;10.00;;;;;16.15;73.63;99231.00;5096777;28;9630;-63
2022/06/08 04:46:02;;;;;;;;;12.75;10.00;;;;;16.23;73.07;99221.88;5096063;28;8872;-63
2022/06/08 04:48:29;;;;;;;;;15.50;12.00;;;;;16.30;73.34;99220.16;5097066;28;8968;-63
2022/06/08 04:50:57;;;;;;;;;15.75;14.50;;;;;16.38;73.44;99229.25;5097093;28;8853;-63
2022/06/08 04:53:25;;;;;;;;;10.00;10.00;;;;;16.39;72.64;99229.91;5095556;28;8842;-63
2022/06/08 04:55:53;;;;;;;;;13.00;12.75;;;;;16.40;73.63;99230.75;5095917;28;8846;-63
2022/06/08 04:58:26;;;;;;;;;15.00;14.00;;;;;16.40;73.84;99228.06;5095311;28;8968;-65
2022/06/08 05:00:54;;;;;;;;;13.00;12.75;;;;;16.38;73.70;99230.91;5096197;28;8854;-64
2022/06/08 05:03:22;;;;;;;;;10.25;8.25;;;;;16.35;74.19;99225.84;5095898;28;8826;-64
2022/06/08 05:05:50;;;;;;;;;9.75;9.00;;;;;16.36;74.16;99234.75;5096318;28;8849;-64
2022/06/08 05:08:18;;;;;;;;;9.75;9.50;;;;;16.38;74.28;99235.44;5095750;28;8982;-64
2022/06/08 05:10:46;;;;;;;;;8.75;8.75;;;;;16.38;74.02;99232.75;5095365;28;8924;-64
2022/06/08 05:13:14;;;;;;;;;8.50;8.50;;;;;16.38;74.23;99230.91;5095916;28;8821;-64
2022/06/08 05:15:42;;;;;;;;;9.50;7.50;;;;;16.39;73.98;99229.03;5095966;28;9530;-64
2022/06/08 05:18:10;;;;;;;;;9.25;8.50;;;;;16.41;74.05;99225.16;5094998;28;8847;-63
2022/06/08 05:20:38;;;;;;;;;10.50;9.50;;;;;16.45;73.93;99223.81;5095266;28;8860;-63
2022/06/08 05:23:05;;;;;;;;;10.50;9.25;;;;;16.51;73.66;99216.88;5096026;28;8842;-64
2022/06/08 05:25:34;;;;;;;;;7.67;7.00;;;;;16.58;73.87;99221.41;5095512;28;8855;-63
2022/06/08 05:28:01;;;;;;;;;6.60;6.40;;;;;16.67;73.48;99208.72;5095312;28;8956;-64
2022/06/08 05:30:29;;;;;;;;;11.20;9.80;;;;;16.76;73.26;99202.25;5093620;28;8980;-64
2022/06/08 05:32:57;;;;;;;;;7.40;6.60;;;;;16.85;73.28;99206.59;5092349;28;8838;-64
2022/06/08 05:35:25;;;;;;;;;10.40;9.80;;;;;16.95;72.53;99205.31;5093738;28;8829;-64
2022/06/08 05:37:53;;;;;;;;;7.80;7.80;;;;;17.09;72.43;99209.91;5094414;28;8826;-64
2022/06/08 05:40:20;;;;;;;;;7.80;7.80;;;;;17.20;72.67;99206.78;5094188;28;8942;-63
2022/06/08 05:42:48;;;;;;;;;6.00;4.00;;;;;17.31;71.92;99195.56;5092337;28;8930;-64
2022/06/08 05:45:16;;;;;;;;;6.20;6.00;;;;;17.43;71.83;99191.47;5094474;28;8845;-64
2022/06/08 05:47:44;;;;;;;;;6.00;5.60;;;;;17.59;71.42;99185.06;5094843;28;8830;-64
2022/06/08 05:50:15;;;;;;;;;3.40;3.20;;;;;17.71;71.43;99187.13;5095335;28;8830;-63
2022/06/08 05:52:45;;;;;;;;;8.00;6.60;;;;;17.78;71.27;99179.94;5095635;28;8847;-64
2022/06/08 05:55:14;;;;;;;;;3.80;3.80;;;;;17.88;71.15;99188.59;5094146;28;8860;-64
2022/06/08 05:57:42;;;;;;;;;5.60;5.20;;;;;17.92;71.37;99181.81;5093353;28;9387;-64
2022/06/08 06:00:09;;;;;;;;;3.60;3.00;;;;;17.96;70.97;99188.50;5093538;28;9539;-64
2022/06/08 06:02:37;;;;;;;;;7.60;6.00;;;;;17.99;70.82;99185.44;5093541;28;8830;-64
2022/06/08 06:05:05;;;;;;;;;4.00;4.00;;;;;18.00;71.24;99187.09;5094139;28;8838;-64
2022/06/08 06:07:33;;;;;;;;;3.00;1.00;;;;;18.04;70.96;99185.72;5093476;28;8997;-63
2022/06/08 06:10:03;;;;;;;;;2.40;1.80;;;;;18.12;71.31;99184.75;5093031;28;8868;-64
2022/06/08 06:12:30;;;;;;;;;3.80;3.80;;;;;18.12;70.94;99182.06;5092762;28;9590;-64
2022/06/08 06:15:04;;;;;;;;;4.00;4.00;;;;;18.13;70.81;99179.19;5092161;28;8841;-64
2022/06/08 06:17:32;;;;;;;;;1.80;0.80;;;;;18.19;71.19;99175.75;5091529;28;9144;-64
2022/06/08 06:20:00;;;;;;;;;3.80;3.80;;;;;18.33;70.93;99174.06;5092294;28;8977;-64
2022/06/08 06:22:32;;;;;;;;;2.60;2.60;;;;;18.46;70.44;99175.06;5093307;28;8976;-64
2022/06/08 06:25:00;;;;;;;;;4.00;4.00;;;;;18.58;70.21;99176.22;5091675;28;9562;-64
2022/06/08 06:27:28;;;;;;;;;4.00;3.20;;;;;18.68;69.73;99163.25;5092320;28;8830;-64
2022/06/08 06:29:55;;;;;;;;;5.40;5.00;;;;;18.76;70.02;99162.31;5091218;28;8841;-64
2022/06/08 06:32:23;;;;;;;;;3.00;3.00;;;;;18.83;69.75;99160.50;5092904;28;9229;-64
2022/06/08 06:34:51;;;;;;;;;4.00;4.00;;;;;18.91;69.56;99171.97;5091808;28;8857;-64
2022/06/08 06:37:19;;;;;;;;;3.20;3.00;;;;;18.94;69.56;99168.06;5091812;28;8833;-64
2022/06/08 06:39:47;;;;;;;;;4.40;3.20;;;;;18.99;69.98;99163.78;5091133;28;8854;-64
2022/06/08 06:42:15;;;;;;;;;4.00;3.20;;;;;19.10;69.42;99162.38;5090876;28;8838;-64
2022/06/08 06:44:43;;;;;;;;;2.00;2.00;;;;;19.19;69.22;99156.69;5091344;28;8834;-64
2022/06/08 06:47:11;;;;;;;;;2.00;2.00;;;;;19.27;68.72;99156.53;5090587;28;8900;-64
2022/06/08 06:49:38;;;;;;;;;2.20;1.20;;;;;19.28;68.94;99152.81;5090258;28;8822;-64
2022/06/08 06:52:06;;;;;;;;;1.60;1.60;;;;;19.33;69.07;99161.16;5090233;28;8844;-64
2022/06/08 06:54:34;;;;;;;;;1.00;1.00;;;;;19.40;68.74;99153.94;5090413;28;8833;-64
2022/06/08 06:57:02;;;;;;;;;4.00;3.80;;;;;19.43;68.85;99150.03;5091884;28;8980;-64
2022/06/08 06:59:30;;;;;;;;;1.80;1.80;;;;;19.44;69.00;99157.94;5092500;28;8838;-64
2022/06/08 07:01:58;;;;;;;;;3.60;2.40;;;;;19.48;68.69;99164.59;5092466;28;8846;-64
2022/06/08 07:04:26;;;;;;;;;1.40;1.40;;;;;19.50;69.04;99159.81;5091960;28;8915;-64
2022/06/08 07:06:54;;;;;;;;;2.20;2.20;;;;;19.53;69.07;99162.16;5091168;28;8838;-64
2022/06/08 07:09:22;;;;;;;;;2.00;2.00;;;;;19.61;68.55;99163.84;5092473;28;8960;-64
2022/06/08 07:11:50;;;;;;;;;3.20;2.00;;;;;19.72;68.46;99164.13;5092172;28;9495;-64
2022/06/08 07:14:18;;;;;;;;;4.00;4.00;;;;;19.80;68.10;99165.84;5093974;28;8826;-64
2022/06/08 07:16:47;;;;;;;;;1.80;1.80;;;;;19.82;68.41;99156.50;5093424;28;8853;-64
2022/06/08 07:19:15;;;;;;;;;1.00;1.00;;;;;19.86;67.98;99148.84;5093235;28;8826;-64
2022/06/08 07:21:43;;;;;;;;;1.60;1.00;;;;;19.93;68.12;99139.72;5091414;28;9511;-64
2022/06/08 07:24:11;;;;;;;;;1.00;1.00;;;;;20.05;67.59;99140.00;5093024;28;8837;-64
2022/06/08 07:26:39;;;;;;;;;3.20;2.80;;;;;20.05;68.18;99138.16;5092525;28;8830;-64
2022/06/08 07:29:07;;;;;;;;;2.60;1.80;;;;;20.08;67.83;99132.31;5092679;28;8838;-64
2022/06/08 07:31:35;;;;;;;;;2.00;1.20;;;;;20.19;67.60;99131.72;5091616;28;8862;-64
2022/06/08 07:34:03;;;;;;;;;0.00;0.00;;;;;20.29;67.03;99124.09;5091387;28;8826;-64
2022/06/08 07:36:30;;;;;;;;;2.00;2.00;;;;;20.36;66.96;99124.94;5091577;28;8842;-64
2022/06/08 07:39:00;;;;;;;;;1.00;1.00;;;;;20.42;67.35;99124.13;5090773;28;8843;-64
2022/06/08 07:41:27;;;;;;;;;2.00;2.00;;;;;20.53;67.06;99115.41;5090481;28;8860;-64
2022/06/08 07:43:55;;;;;;;;;1.20;1.20;;;;;20.64;67.00;99112.06;5093422;28;9610;-64
2022/06/08 07:46:23;;;;;;;;;1.80;1.80;;;;;20.81;66.18;99114.19;5094437;28;9467;-64
2022/06/08 07:51:37;;;;;;;;;1.00;1.00;;;;;20.94;65.75;99107.97;5096042;28;8829;-63
2022/06/08 07:54:05;;;;;;;;;1.80;1.00;;;;;20.95;65.27;99107.78;5096599;28;8864;-65
2022/06/08 07:56:33;;;;;;;;;2.00;2.00;;;;;21.04;65.61;99103.00;5095218;28;8865;-64
2022/06/08 07:59:00;;;;;;;;;2.00;2.00;;;;;21.16;65.22;99093.19;5095023;28;8836;-64
2022/06/08 08:01:28;;;;;;;;;2.00;2.00;;;;;21.24;64.98;99092.97;5094003;28;8888;-64
2022/06/08 08:03:56;;;;;;;;;1.20;1.00;;;;;21.36;64.32;99086.72;5092563;28;9780;-64
2022/06/08 08:06:24;;;;;;;;;2.00;2.00;;;;;21.51;64.16;99073.75;5093645;28;8862;-64
2022/06/08 08:08:52;;;;;;;;;1.20;1.20;;;;;21.62;64.12;99077.66;5094683;28;8834;-64
2022/06/08 08:11:20;;;;;;;;;2.00;1.60;;;;;21.71;64.07;99079.97;5093483;28;8841;-64
2022/06/08 08:13:48;;;;;;;;;1.00;1.00;;;;;21.76;64.01;99071.19;5092043;28;8825;-64
2022/06/08 08:16:15;;;;;;;;;1.00;1.00;;;;;21.80;63.11;99062.41;5091948;28;8931;-64
2022/06/08 08:18:43;;;;;;;;;1.60;1.60;;;;;21.82;63.24;99062.19;5092176;28;8834;-65
2022/06/08 08:21:15;;;;;;;;;1.80;1.00;;;;;21.77;63.15;99064.72;5091779;28;9001;-64
2022/06/08 08:23:43;;;;;;;;;1.00;1.00;;;;;21.74;63.19;99066.00;5092464;28;9585;-65
2022/06/08 08:26:11;;;;;;;;;1.80;1.60;;;;;21.68;63.45;99058.72;5091273;28;8860;-64
2022/06/08 08:28:39;;;;;;;;;1.80;1.20;;;;;21.71;63.02;99054.75;5093704;28;8846;-64
2022/06/08 08:31:07;;;;;;;;;1.60;1.00;;;;;21.68;62.96;99056.00;5094243;28;8858;-65
2022/06/08 08:33:36;;;;;;;;;1.00;1.00;;;;;21.66;63.53;99051.84;5095247;28;8870;-64
2022/06/08 08:36:03;;;;;;;;;1.40;1.40;;;;;21.63;63.43;99057.66;5094820;28;8821;-65
2022/06/08 08:38:32;;;;;;;;;1.00;1.00;;;;;21.63;63.55;99050.34;5092906;28;8842;-64
2022/06/08 08:40:59;;;;;;;;;1.00;1.00;;;;;21.66;63.00;99049.13;5094015;28;8834;-65
2022/06/08 08:43:29;;;;;;;;;1.00;1.00;;;;;21.71;62.87;99036.59;5095811;28;8834;-64
2022/06/08 08:45:57;;;;;;;;;2.00;1.00;;;;;21.86;63.03;99039.03;5095645;28;8858;-65
2022/06/08 08:48:25;;;;;;;;;1.00;1.00;;;;;22.02;62.30;99035.84;5094992;28;8838;-64
2022/06/08 08:50:53;;;;;;;;;1.00;1.00;;;;;22.21;61.75;99034.88;5095821;28;8834;-64
2022/06/08 08:53:21;;;;;;;;;1.60;1.00;;;;;22.32;61.43;99034.19;5094658;28;8868;-65
2022/06/08 08:55:49;;;;;;;;;1.00;1.00;;;;;22.37;61.77;99031.63;5095633;28;8833;-65
2022/06/08 08:58:17;;;;;;;;;2.00;2.00;;;;;22.46;61.66;99033.91;5094666;28;9316;-65
2022/06/08 09:00:45;;;;;;;;;1.00;1.00;;;;;22.50;61.51;99031.59;5092700;28;8854;-65
2022/06/08 09:03:18;;;;;;;;;1.00;1.00;;;;;22.45;61.36;99031.41;5093252;28;8964;-65
2022/06/08 09:05:47;;;;;;;;;1.00;1.00;;;;;22.31;61.20;99032.53;5094679;28;8846;-65
2022/06/08 09:08:16;;;;;;;;;1.00;1.00;;;;;22.30;61.72;99022.72;5093685;28;9638;-65
2022/06/08 09:10:49;;;;;;;;;1.00;1.00;;;;;22.39;61.48;99024.13;5092855;28;8872;-65
2022/06/08 09:13:17;;;;;;;;;1.00;1.00;;;;;22.46;61.44;99030.38;5094177;28;9669;-65
2022/06/08 09:15:45;;;;;;;;;1.80;1.00;;;;;22.56;60.69;99026.13;5094910;28;8826;-65
2022/06/08 09:18:13;;;;;;;;;1.00;1.00;;;;;22.74;60.00;99017.19;5094862;28;8829;-65
2022/06/08 09:20:41;;;;;;;;;1.00;1.00;;;;;22.94;59.94;99021.41;5093888;28;9000;-65
2022/06/08 09:23:09;;;;;;;;;0.00;0.00;;;;;23.17;59.41;99021.63;5092740;28;8841;-65
2022/06/08 09:25:36;;;;;;;;;1.00;1.00;;;;;23.32;59.00;99016.66;5093496;28;9491;-64
2022/06/08 09:28:05;;;;;;;;;1.00;1.00;;;;;23.35;58.33;99018.91;5093389;28;8999;-65
2022/06/08 09:30:33;;;;;;;;;1.00;1.00;;;;;23.37;58.19;99014.06;5093209;28;8846;-64
2022/06/08 09:33:02;;;;;;;;;0.00;0.00;;;;;23.47;57.77;99019.00;5093409;28;8871;-65
2022/06/08 09:35:29;;;;;;;;;1.00;1.00;;;;;23.53;58.08;99016.19;5093599;28;8856;-65
2022/06/08 09:37:58;;;;;;;;;1.20;1.20;;;;;23.47;58.04;99011.69;5093084;28;8837;-65
2022/06/08 09:40:38;;;;;;;;;0.60;0.60;;;;;23.49;58.28;99008.72;5088139;28;8834;-65
2022/06/08 09:43:09;;;;;;;;;1.00;1.00;;;;;23.55;57.62;99003.22;5092476;28;8845;-65
2022/06/08 09:45:37;;;;;;;;;1.00;1.00;;;;;23.62;57.70;99005.84;5094390;28;8837;-65
2022/06/08 09:53:36;;;;;;;;;2.40;1.60;;;;;24.04;56.46;98997.56;5092043;28;8918;-66
2022/06/08 09:56:04;;;;;;;;;1.00;1.00;;;;;24.14;55.28;98994.28;5092988;28;8967;-66
2022/06/08 09:58:31;;;;;;;;;1.00;1.00;;;;;24.16;55.30;98986.72;5092174;28;8981;-66
2022/06/08 10:00:59;;;;;;;;;0.20;0.00;;;;;24.03;55.86;98981.47;5092423;28;8996;-66
2022/06/08 10:03:28;;;;;;;;;1.00;1.00;;;;;23.80;55.96;98993.06;5092530;28;8884;-65
2022/06/08 10:05:56;;;;;;;;;2.00;1.00;;;;;23.83;56.49;98987.16;5089420;28;8842;-66
2022/06/08 10:08:24;;;;;;;;;0.60;0.00;;;;;23.88;55.80;98984.63;5091225;28;8852;-65
2022/06/08 10:10:52;;;;;;;;;1.60;1.00;;;;;23.83;55.82;98997.22;5092268;28;8853;-66
2022/06/08 10:13:21;;;;;;;;;1.00;1.00;;;;;23.60;55.86;98995.19;5092596;28;8863;-66
2022/06/08 10:15:49;;;;;;;;;1.00;1.00;;;;;23.37;55.64;98996.97;5091834;28;8842;-66
2022/06/08 10:18:17;;;;;;;;;0.80;0.80;;;;;23.13;55.96;98997.81;5093169;28;8911;-66
2022/06/08 10:20:45;;;;;;;;;0.80;0.80;;;;;22.99;56.48;98993.56;5091133;28;8829;-66
2022/06/08 10:23:13;;;;;;;;;2.00;2.00;;;;;22.84;56.90;98988.47;5090143;28;8960;-65
2022/06/08 10:25:41;;;;;;;;;0.80;0.80;;;;;22.69;57.21;98979.03;5088960;28;8996;-66
2022/06/08 10:28:09;;;;;;;;;1.60;1.00;;;;;22.56;57.04;98984.56;5089332;28;8952;-65
2022/06/08 10:30:38;;;;;;;;;1.00;1.00;;;;;22.46;57.39;98981.53;5089077;28;8862;-65
2022/06/08 10:33:06;;;;;;;;;1.00;1.00;;;;;22.40;57.43;98987.78;5089515;28;8972;-65
2022/06/08 10:35:35;;;;;;;;;0.20;0.20;;;;;22.41;57.18;98979.47;5090817;28;8826;-65
2022/06/08 10:38:03;;;;;;;;;1.00;1.00;;;;;22.46;57.62;98982.34;5090836;28;8952;-65
2022/06/08 10:40:32;;;;;;;;;0.60;0.00;;;;;22.56;57.06;98971.84;5092518;28;8818;-65
2022/06/08 10:43:00;;;;;;;;;1.00;1.00;;;;;22.61;56.54;98976.59;5092254;28;8838;-65
2022/06/08 10:45:28;;;;;;;;;1.60;1.00;;;;;22.71;56.75;98974.19;5092269;28;9187;-65
2022/06/08 10:47:56;;;;;;;;;1.20;1.00;;;;;22.76;56.59;98972.47;5092685;28;9512;-65
2022/06/08 10:50:24;;;;;;;;;2.00;1.40;;;;;22.80;56.84;98975.56;5091511;28;8842;-65
2022/06/08 10:52:52;;;;;;;;;1.00;1.00;;;;;22.84;56.47;98971.38;5090596;28;8968;-65
2022/06/08 10:55:19;;;;;;;;;1.60;1.00;;;;;22.92;56.78;98960.22;5091233;28;8872;-65
2022/06/08 10:57:49;;;;;;;;;1.00;1.00;;;;;22.99;56.57;98956.34;5090472;28;8830;-65
2022/06/08 11:00:17;;;;;;;;;1.60;1.00;;;;;23.05;56.55;98960.06;5090054;28;8896;-66
2022/06/08 11:02:45;;;;;;;;;0.00;0.00;;;;;23.09;55.93;98955.84;5091525;28;9678;-65
2022/06/08 11:05:12;;;;;;;;;1.40;0.80;;;;;23.16;56.04;98962.06;5091119;28;9008;-65
2022/06/08 11:07:40;;;;;;;;;1.00;1.00;;;;;23.27;55.76;98958.59;5092391;28;8842;-65
2022/06/08 11:10:08;;;;;;;;;1.20;1.20;;;;;23.42;55.19;98959.03;5092554;28;8922;-65
2022/06/08 11:12:39;;;;;;;;;0.40;0.40;;;;;23.63;54.59;98959.41;5092603;28;8986;-66
2022/06/08 11:15:06;;;;;;;;;1.00;1.00;;;;;23.57;54.76;98954.03;5093102;28;8866;-67
2022/06/08 11:17:35;;;;;;;;;1.20;1.20;;;;;23.42;54.78;98950.88;5093750;28;9487;-66
2022/06/08 11:20:03;;;;;;;;;0.60;0.60;;;;;23.29;54.97;98951.06;5091619;28;8841;-66
2022/06/08 11:22:31;;;;;;;;;1.80;1.00;;;;;23.17;54.70;98948.28;5091807;28;8842;-66
2022/06/08 11:24:59;;;;;;;;;2.00;2.00;;;;;23.02;55.41;98955.94;5091889;28;8849;-65
2022/06/08 11:27:28;;;;;;;;;2.00;2.00;;;;;22.78;55.33;98956.78;5092235;28;8830;-65
2022/06/08 11:29:56;;;;;;;;;1.00;1.00;;;;;22.49;55.43;98952.06;5092809;28;8887;-66
2022/06/08 11:32:24;;;;;;;;;2.20;1.80;;;;;22.21;56.43;98957.03;5092631;28;8976;-66
2022/06/08 11:34:52;;;;;;;;;2.80;2.00;;;;;21.95;56.79;98956.41;5091925;28;8841;-65
2022/06/08 11:37:20;;;;;;;;;1.00;1.00;;;;;21.73;57.36;98957.78;5093399;28;8960;-65
2022/06/08 11:39:48;;;;;;;;;2.00;2.00;;;;;21.21;58.21;98956.09;5093407;28;8840;-66
2022/06/08 11:42:15;;;;;;;;;1.00;1.00;;;;;20.90;58.70;98966.78;5092932;28;8849;-66
2022/06/08 11:44:44;;;;;;;;;1.00;1.00;;;;;20.83;59.19;98957.00;5089436;28;8926;-66
2022/06/08 11:47:11;;;;;;;;;1.60;1.00;;;;;20.82;59.54;98955.34;5091407;28;8972;-66
2022/06/08 11:49:39;;;;;;;;;0.60;0.60;;;;;20.77;59.46;98947.84;5091930;28;9249;-66
2022/06/08 11:52:07;;;;;;;;;1.20;1.20;;;;;20.70;58.76;98946.19;5090652;28;8981;-65